Semyachiki, Russia
Current Conditions -  °F | °C
As of 7:00 PM on Saturday 20 Dec 2014 (Local Time) from UHPP Reporting Station
Clear Clear  
Wind Chill: 14°   Ceiling: Unl
Heat Index: 14°   Visibility: 6mi
Dew Point: -2°   Wind: 2mph
Humidity: 49%   Direction: NA
Pressure: 29.85"   Gusts: NA
Location:  54.12°N, 159.98°E
Report Text: UHPP 200700Z VRB01MPS 9999 NSC M10/M19 Q1011 NOSIG RMKQFE755/1007 SC070
Loading
Personal Weather Stations






























Interactive Weather Map New forecast layout! Learn more

10-Day Weather Forecast

Advertisements
Track Severe Weather on mobile